Terminal Aerodrome Forecast
Issued by NWS Sterling, VA

Home | Current Version | Previous Version | Text Only | Print | Product List | Glossary On
Versions: 1 2 3 4 5 6 7 8 9 10 11 12 13 14 15 16 17 18 19 20 21 22
069
FTUS41 KLWX 051854 AAA
TAFCHO
TAF AMD
KCHO 051854Z 0519/0618 01010KT P6SM BKN015 OVC025
     FM060000 01005KT 5SM -SHRA OVC050
     FM060300 VRB03KT 3SM -SHRA OVC025=

USA.gov is the U.S. government's official web portal to all federal, state and local government web resources and services.